Time;durP1;ratioP1;P1;durP2;ratioP2;P2;SDS_P1;SDS_P2;PMS_P1;PMS_P2;Temp;Humidity;BMP_temperature;BMP_pressure;BME280_temperature;BME280_humidity;BME280_pressure;Samples;Min_cycle;Max_cycle;Signal;HPM_P1;HPM_P2
2023/06/27 00:00:34;;;;;;;13.15;7.53;;;17.70;99.90;;;;;;2032856;29;20041;-80
2023/06/27 00:01:39;;;;;;;9.82;7.10;;;17.80;99.90;;;;;;2027491;29;20079;-81
2023/06/27 00:02:40;;;;;;;9.75;7.35;;;17.80;99.90;;;;;;2028911;29;20075;-81
2023/06/27 00:03:40;;;;;;;9.73;7.72;;;17.90;99.90;;;;;;2043205;28;20047;-80
2023/06/27 00:04:41;;;;;;;10.48;7.25;;;17.90;99.90;;;;;;2045019;29;20035;-81
2023/06/27 00:05:41;;;;;;;10.50;7.55;;;17.90;99.90;;;;;;2035494;29;20050;-79
2023/06/27 00:06:42;;;;;;;9.32;7.32;;;18.00;99.90;;;;;;2037520;29;20066;-80
2023/06/27 00:07:43;;;;;;;11.95;8.15;;;18.00;99.90;;;;;;2035270;29;20067;-80
2023/06/27 00:08:45;;;;;;;11.13;7.95;;;18.00;99.90;;;;;;2031080;29;20118;-71
2023/06/27 00:09:45;;;;;;;10.32;7.82;;;18.00;99.90;;;;;;2036986;29;20047;-75
2023/06/27 00:10:46;;;;;;;12.35;7.95;;;18.10;99.90;;;;;;2037965;29;20023;-78
2023/06/27 00:11:46;;;;;;;10.20;7.50;;;18.20;99.90;;;;;;2042182;28;20106;-73
2023/06/27 00:12:47;;;;;;;10.88;7.60;;;18.20;99.90;;;;;;2044224;28;20882;-71
2023/06/27 00:13:49;;;;;;;11.00;8.02;;;18.20;99.90;;;;;;2041391;28;20510;-71
2023/06/27 00:14:49;;;;;;;10.15;7.95;;;18.20;99.90;;;;;;2037402;29;20040;-72
2023/06/27 00:15:52;;;;;;;11.02;7.75;;;18.20;99.90;;;;;;2036062;29;20118;-71
2023/06/27 00:16:52;;;;;;;13.38;8.10;;;18.20;99.90;;;;;;2040778;29;20039;-70
2023/06/27 00:17:55;;;;;;;11.95;7.57;;;18.30;99.90;;;;;;2041930;29;20062;-72
2023/06/27 00:18:55;;;;;;;11.18;7.60;;;18.30;99.90;;;;;;2041381;29;20509;-73
2023/06/27 00:19:58;;;;;;;12.80;7.65;;;18.30;99.90;;;;;;2038622;28;20027;-73
2023/06/27 00:20:58;;;;;;;12.55;8.05;;;18.20;99.90;;;;;;2039217;28;20045;-71
2023/06/27 00:21:59;;;;;;;10.80;7.60;;;18.20;99.90;;;;;;2043106;28;20027;-72
2023/06/27 00:23:23;;;;;;;10.48;7.53;;;18.20;99.90;;;;;;2036623;29;20087;-71
2023/06/27 00:24:23;;;;;;;11.27;7.55;;;18.20;99.90;;;;;;2047565;28;20111;-72
2023/06/27 00:25:24;;;;;;;9.50;7.53;;;18.20;99.90;;;;;;2047939;28;20031;-73
2023/06/27 00:26:25;;;;;;;11.82;7.97;;;18.30;99.90;;;;;;2051557;28;20631;-73
2023/06/27 00:27:26;;;;;;;14.35;7.57;;;18.20;99.90;;;;;;2036124;29;20030;-71
2023/06/27 00:28:27;;;;;;;8.95;7.55;;;18.30;99.90;;;;;;2028271;29;20068;-72
2023/06/27 00:29:30;;;;;;;12.20;8.00;;;18.20;99.90;;;;;;2036648;28;20511;-72
2023/06/27 00:30:31;;;;;;;11.50;7.90;;;18.20;99.90;;;;;;2047392;28;20321;-72
2023/06/27 00:31:31;;;;;;;11.93;8.13;;;18.30;99.90;;;;;;2048018;28;20034;-72
2023/06/27 00:32:32;;;;;;;12.43;8.13;;;18.30;99.90;;;;;;2046152;28;20031;-72
2023/06/27 00:33:34;;;;;;;11.57;8.57;;;18.30;99.90;;;;;;2045846;28;20134;-71
2023/06/27 00:34:35;;;;;;;15.15;8.35;;;18.30;99.90;;;;;;2038210;28;20035;-72
2023/06/27 00:35:38;;;;;;;13.27;8.38;;;18.30;99.90;;;;;;2040535;28;20034;-71
2023/06/27 00:36:38;;;;;;;12.23;8.27;;;18.30;99.90;;;;;;2039556;29;20044;-72
2023/06/27 00:37:39;;;;;;;13.27;8.35;;;18.30;99.90;;;;;;2028027;29;20032;-74
2023/06/27 00:38:40;;;;;;;12.05;8.43;;;18.30;99.90;;;;;;2031598;29;20035;-72
2023/06/27 00:39:41;;;;;;;12.90;8.40;;;18.30;99.90;;;;;;2033052;29;20032;-72
2023/06/27 00:40:41;;;;;;;10.95;7.85;;;18.30;99.90;;;;;;2038362;29;20079;-73
2023/06/27 00:41:42;;;;;;;13.45;8.25;;;18.30;99.90;;;;;;2038475;29;20114;-73
2023/06/27 00:42:43;;;;;;;12.20;8.50;;;18.30;99.90;;;;;;2038622;29;20034;-73
2023/06/27 00:43:43;;;;;;;10.40;7.63;;;18.30;99.90;;;;;;2038801;28;20443;-74
2023/06/27 00:44:44;;;;;;;12.13;8.30;;;18.30;99.90;;;;;;2040223;29;20050;-73
2023/06/27 00:45:44;;;;;;;10.15;7.70;;;18.30;99.90;;;;;;2041092;29;20027;-73
2023/06/27 00:46:50;;;;;;;10.18;7.95;;;18.30;99.90;;;;;;2034832;29;20265;-75
2023/06/27 00:47:52;;;;;;;12.50;8.32;;;18.30;99.90;;;;;;2034855;29;20042;-73
2023/06/27 00:48:53;;;;;;;10.98;8.45;;;18.40;99.90;;;;;;2039602;28;20062;-73
2023/06/27 00:49:53;;;;;;;11.90;8.52;;;18.40;99.90;;;;;;2040523;29;20031;-72
2023/06/27 00:50:55;;;;;;;12.13;8.73;;;18.40;99.90;;;;;;2038929;29;20873;-71
2023/06/27 00:51:56;;;;;;;14.75;8.70;;;18.40;99.90;;;;;;2039203;28;20016;-73
2023/06/27 00:52:59;;;;;;;12.07;8.60;;;18.40;99.90;;;;;;2038760;28;20137;-72
2023/06/27 00:54:00;;;;;;;13.65;8.35;;;18.40;99.90;;;;;;2037991;28;20024;-72
2023/06/27 00:55:01;;;;;;;16.75;8.60;;;18.40;99.90;;;;;;2039167;28;20554;-72
2023/06/27 00:56:02;;;;;;;10.43;8.38;;;18.40;99.90;;;;;;2040525;29;20034;-70
2023/06/27 00:57:03;;;;;;;13.98;9.05;;;18.40;99.90;;;;;;2038003;28;20039;-71
2023/06/27 00:58:04;;;;;;;10.43;8.43;;;18.40;99.90;;;;;;2045987;28;20657;-71
2023/06/27 00:59:05;;;;;;;12.55;9.07;;;18.40;99.90;;;;;;2038555;28;20041;-71
2023/06/27 01:00:13;;;;;;;10.32;8.45;;;18.40;99.90;;;;;;2036671;29;20183;-71
2023/06/27 01:01:14;;;;;;;10.27;8.20;;;18.40;99.90;;;;;;2040237;28;20108;-71
2023/06/27 01:02:14;;;;;;;12.30;8.95;;;18.40;99.90;;;;;;2040005;29;20039;-72
2023/06/27 01:03:15;;;;;;;14.38;9.10;;;18.40;99.90;;;;;;2039479;29;20037;-71
2023/06/27 01:04:16;;;;;;;13.80;8.65;;;18.40;99.90;;;;;;2039119;28;20031;-72
2023/06/27 01:05:18;;;;;;;14.85;8.77;;;18.40;99.90;;;;;;2030066;29;20055;-71
2023/06/27 01:06:34;;;;;;;13.07;8.68;;;18.40;99.90;;;;;;2040454;29;20047;-72
2023/06/27 01:07:45;;;;;;;12.93;8.40;;;18.40;99.90;;;;;;2040868;28;20765;-71
2023/06/27 01:08:56;;;;;;;12.35;8.32;;;18.30;99.90;;;;;;2038840;28;20490;-71
2023/06/27 01:10:03;;;;;;;12.65;8.32;;;18.30;99.90;;;;;;2035497;29;20035;-71
2023/06/27 01:11:20;;;;;;;13.77;8.15;;;18.40;99.90;;;;;;2036955;29;20032;-71
2023/06/27 01:12:44;;;;;;;10.77;7.82;;;18.40;99.90;;;;;;2039816;29;20050;-71
2023/06/27 01:13:49;;;;;;;13.63;8.40;;;18.40;99.90;;;;;;2040446;28;20045;-72
2023/06/27 01:14:54;;;;;;;13.82;8.13;;;18.40;99.90;;;;;;2046692;28;20034;-72
2023/06/27 01:15:57;;;;;;;13.48;8.02;;;18.40;99.90;;;;;;2035255;29;20108;-71
2023/06/27 01:17:00;;;;;;;10.60;7.30;;;18.40;99.90;;;;;;2038675;28;20031;-72
2023/06/27 01:18:01;;;;;;;9.23;6.93;;;18.40;99.90;;;;;;2031303;29;20039;-72
2023/06/27 01:19:07;;;;;;;10.25;6.82;;;18.40;99.90;;;;;;2031359;29;20106;-72
2023/06/27 01:20:09;;;;;;;10.15;6.60;;;18.30;99.90;;;;;;2039060;29;20039;-72
2023/06/27 01:21:09;;;;;;;12.07;6.20;;;18.30;99.90;;;;;;2035917;29;20394;-70
2023/06/27 01:22:15;;;;;;;13.77;6.40;;;18.30;99.90;;;;;;2037673;28;20084;-71
2023/06/27 01:23:33;;;;;;;10.18;6.13;;;18.30;99.90;;;;;;2044757;28;20045;-73
2023/06/27 01:24:36;;;;;;;11.30;6.20;;;18.30;99.90;;;;;;2037226;29;20046;-71
2023/06/27 01:25:37;;;;;;;11.30;6.30;;;18.30;99.90;;;;;;2037868;28;20120;-72
2023/06/27 01:26:40;;;;;;;8.20;5.28;;;18.20;99.90;;;;;;2045289;28;20046;-72
2023/06/27 01:27:41;;;;;;;12.27;6.20;;;18.20;99.90;;;;;;2037685;28;20081;-71
2023/06/27 01:28:41;;;;;;;13.52;5.70;;;18.20;99.90;;;;;;2036499;29;20027;-70
2023/06/27 01:29:42;;;;;;;8.65;5.60;;;18.20;99.90;;;;;;2046194;28;20039;-71
2023/06/27 01:30:42;;;;;;;8.60;5.75;;;18.20;99.90;;;;;;2034675;29;20439;-71
2023/06/27 01:31:51;;;;;;;8.38;5.47;;;18.20;99.90;;;;;;2038941;29;20469;-71
2023/06/27 01:33:02;;;;;;;8.40;5.68;;;18.20;99.90;;;;;;2039567;29;20031;-71
2023/06/27 01:34:27;;;;;;;8.63;5.30;;;18.20;99.90;;;;;;2039137;28;20031;-71
2023/06/27 01:35:49;;;;;;;7.82;5.20;;;18.20;99.90;;;;;;2023530;29;20127;-71
2023/06/27 01:37:07;;;;;;;7.80;5.50;;;18.20;99.90;;;;;;2027297;29;20027;-72
2023/06/27 01:38:12;;;;;;;10.15;5.50;;;18.20;99.90;;;;;;2031887;29;20040;-72
2023/06/27 01:39:18;;;;;;;11.93;5.75;;;18.20;99.90;;;;;;2030372;29;20067;-72
2023/06/27 01:40:20;;;;;;;8.82;5.38;;;18.20;99.90;;;;;;2037593;29;20026;-71
2023/06/27 01:41:23;;;;;;;8.73;5.65;;;18.10;99.90;;;;;;2038700;28;20059;-73
2023/06/27 01:42:28;;;;;;;8.25;5.85;;;18.10;99.90;;;;;;2045375;28;20420;-71
2023/06/27 01:43:29;;;;;;;11.15;5.10;;;18.10;99.90;;;;;;2039998;28;20120;-72
2023/06/27 01:44:32;;;;;;;8.25;5.22;;;18.00;99.90;;;;;;2030767;29;20031;-71
2023/06/27 01:45:33;;;;;;;8.60;5.60;;;18.10;99.90;;;;;;2035008;28;20651;-72
2023/06/27 01:46:35;;;;;;;8.38;5.72;;;18.10;99.90;;;;;;2038819;28;20034;-71
2023/06/27 01:47:40;;;;;;;10.20;5.53;;;18.00;99.90;;;;;;2038789;28;20048;-71
2023/06/27 01:48:42;;;;;;;11.52;5.30;;;18.10;99.90;;;;;;2038619;28;20043;-71
2023/06/27 01:49:43;;;;;;;7.43;5.28;;;18.00;99.90;;;;;;2040093;29;20473;-73
2023/06/27 01:50:43;;;;;;;9.07;5.30;;;18.00;99.90;;;;;;2037805;29;20039;-73
2023/06/27 01:51:44;;;;;;;8.60;5.30;;;18.00;99.90;;;;;;2045141;28;20502;-73
2023/06/27 01:52:44;;;;;;;13.20;5.32;;;18.10;99.90;;;;;;2045529;28;20082;-73
2023/06/27 01:53:45;;;;;;;14.00;5.68;;;18.00;99.90;;;;;;2048465;28;20120;-72
2023/06/27 01:54:46;;;;;;;11.30;5.95;;;18.00;99.90;;;;;;2042490;28;20031;-72
2023/06/27 01:55:47;;;;;;;15.05;6.18;;;18.00;99.90;;;;;;2044600;28;20023;-72
2023/06/27 01:56:47;;;;;;;8.13;5.47;;;18.00;99.90;;;;;;2040944;28;20041;-72
2023/06/27 01:57:50;;;;;;;13.88;5.55;;;18.00;99.90;;;;;;2026443;29;20028;-72
2023/06/27 01:58:51;;;;;;;10.27;5.28;;;18.00;99.90;;;;;;2030596;29;20406;-71
2023/06/27 01:59:52;;;;;;;8.13;5.68;;;18.10;99.90;;;;;;2031767;29;20031;-71
2023/06/27 02:00:52;;;;;;;9.40;5.25;;;18.00;99.90;;;;;;2037743;29;20114;-71
2023/06/27 02:01:53;;;;;;;10.07;5.38;;;18.10;99.90;;;;;;2045313;28;20415;-72
2023/06/27 02:02:53;;;;;;;10.90;5.60;;;18.10;99.90;;;;;;2043002;28;20087;-71
2023/06/27 02:03:54;;;;;;;7.90;4.95;;;18.20;99.90;;;;;;2040749;28;20023;-71
2023/06/27 02:04:54;;;;;;;9.10;5.53;;;18.10;99.90;;;;;;2039608;29;20751;-71
2023/06/27 02:05:55;;;;;;;12.45;5.60;;;18.10;99.90;;;;;;2035283;29;20035;-71
2023/06/27 02:06:56;;;;;;;9.90;5.38;;;18.10;99.90;;;;;;2026425;29;20054;-71
2023/06/27 02:07:56;;;;;;;6.65;5.60;;;18.20;99.90;;;;;;2035808;29;20091;-71
2023/06/27 02:08:59;;;;;;;8.07;5.55;;;18.20;99.90;;;;;;2034552;29;20031;-71
2023/06/27 02:09:59;;;;;;;6.72;5.07;;;18.20;99.90;;;;;;2037608;29;20028;-72
2023/06/27 02:11:00;;;;;;;8.20;5.45;;;18.10;99.90;;;;;;2045068;28;20062;-71
2023/06/27 02:12:00;;;;;;;7.88;5.65;;;18.10;99.90;;;;;;2048096;28;20039;-72
2023/06/27 02:13:03;;;;;;;9.95;5.60;;;18.10;99.90;;;;;;2041913;28;20023;-72
2023/06/27 02:14:04;;;;;;;8.32;5.40;;;18.10;99.90;;;;;;2035242;29;20116;-71
2023/06/27 02:15:05;;;;;;;8.35;5.47;;;18.10;99.90;;;;;;2036229;29;20112;-72
2023/06/27 02:16:05;;;;;;;9.35;5.28;;;18.10;99.90;;;;;;2046317;28;20065;-71
2023/06/27 02:17:06;;;;;;;8.23;5.20;;;18.10;99.90;;;;;;2043415;28;20031;-72
2023/06/27 02:18:07;;;;;;;9.38;5.30;;;18.10;99.90;;;;;;2036049;29;20035;-72
2023/06/27 02:19:07;;;;;;;12.38;5.60;;;18.20;99.90;;;;;;2035436;28;20086;-72
2023/06/27 02:20:08;;;;;;;11.93;5.47;;;18.10;99.90;;;;;;2037219;29;20510;-73
2023/06/27 02:21:10;;;;;;;9.85;5.50;;;18.10;99.90;;;;;;2036452;28;20040;-71
2023/06/27 02:22:11;;;;;;;10.25;5.25;;;18.10;99.90;;;;;;2036518;29;20024;-71
2023/06/27 02:23:14;;;;;;;8.45;5.22;;;18.10;99.90;;;;;;2045273;28;20094;-72
2023/06/27 02:24:14;;;;;;;9.98;5.45;;;18.10;99.90;;;;;;2032709;29;20024;-72
2023/06/27 02:25:15;;;;;;;9.23;5.20;;;18.10;99.90;;;;;;2031849;29;20537;-72
2023/06/27 02:26:17;;;;;;;8.57;5.05;;;18.00;99.90;;;;;;2042652;28;20031;-72
2023/06/27 02:27:18;;;;;;;9.65;5.03;;;18.00;99.90;;;;;;2039716;29;20114;-73
2023/06/27 02:28:19;;;;;;;10.30;5.35;;;18.00;99.90;;;;;;2045515;28;20035;-72
2023/06/27 02:29:19;;;;;;;10.30;5.85;;;18.00;99.90;;;;;;2043913;28;20442;-72
2023/06/27 02:30:20;;;;;;;10.98;5.82;;;18.00;99.90;;;;;;2044350;28;20117;-72
2023/06/27 02:31:21;;;;;;;9.05;5.30;;;18.00;99.90;;;;;;2043309;28;20027;-72
2023/06/27 02:32:23;;;;;;;9.10;5.30;;;18.00;99.90;;;;;;2044745;28;20023;-72
2023/06/27 02:33:24;;;;;;;8.80;5.20;;;18.00;99.90;;;;;;2036874;29;20030;-72
2023/06/27 02:34:24;;;;;;;8.10;4.85;;;17.90;99.90;;;;;;2046665;28;20031;-72
2023/06/27 02:35:25;;;;;;;6.47;4.82;;;18.00;99.90;;;;;;2034147;29;20038;-72
2023/06/27 02:36:27;;;;;;;9.05;4.93;;;18.00;99.90;;;;;;2038848;29;20034;-72
2023/06/27 02:37:30;;;;;;;13.13;5.57;;;17.90;99.90;;;;;;2036755;29;20030;-72
2023/06/27 02:38:30;;;;;;;9.57;4.95;;;17.90;99.90;;;;;;2036835;29;20524;-72
2023/06/27 02:39:31;;;;;;;8.88;5.00;;;17.90;99.90;;;;;;2034337;29;20039;-73
2023/06/27 02:40:32;;;;;;;8.43;4.95;;;17.80;99.90;;;;;;2034325;29;20020;-73
2023/06/27 02:41:32;;;;;;;10.48;4.97;;;17.80;99.90;;;;;;2041038;29;20032;-72
2023/06/27 02:42:36;;;;;;;10.70;5.40;;;17.80;99.90;;;;;;2042413;28;20023;-72
2023/06/27 02:43:38;;;;;;;11.82;5.50;;;17.80;99.90;;;;;;2038384;28;20037;-71
2023/06/27 02:44:39;;;;;;;12.00;5.38;;;17.70;99.90;;;;;;2034144;29;20023;-71
2023/06/27 02:45:40;;;;;;;8.45;4.82;;;17.70;99.90;;;;;;2038383;29;20506;-71
2023/06/27 02:46:40;;;;;;;9.60;5.57;;;17.70;99.90;;;;;;2026521;29;20039;-71
2023/06/27 02:47:41;;;;;;;9.88;5.60;;;17.70;99.90;;;;;;2035925;29;20054;-71
2023/06/27 02:48:42;;;;;;;13.73;5.20;;;17.60;99.90;;;;;;2036861;29;20031;-72
2023/06/27 02:49:42;;;;;;;8.90;5.07;;;17.60;99.90;;;;;;2037566;29;20043;-71
2023/06/27 02:50:49;;;;;;;8.13;5.13;;;17.60;99.90;;;;;;2045376;28;20030;-73
2023/06/27 02:51:50;;;;;;;8.57;5.13;;;17.60;99.90;;;;;;2047359;28;20042;-71
2023/06/27 02:52:50;;;;;;;8.18;5.20;;;17.60;99.90;;;;;;2048459;28;20027;-74
2023/06/27 02:53:51;;;;;;;8.95;5.15;;;17.60;99.90;;;;;;2042538;28;20036;-71
2023/06/27 02:54:52;;;;;;;7.90;5.00;;;17.60;99.90;;;;;;2046037;28;20617;-72
2023/06/27 02:55:53;;;;;;;8.15;4.90;;;17.60;99.90;;;;;;2045838;28;20111;-71
2023/06/27 02:56:55;;;;;;;7.53;5.07;;;17.60;99.90;;;;;;2041630;28;20035;-71
2023/06/27 02:57:55;;;;;;;10.35;5.45;;;17.60;99.90;;;;;;2040639;29;20094;-72
2023/06/27 02:58:56;;;;;;;10.48;5.20;;;17.50;99.90;;;;;;2037358;28;20147;-71
2023/06/27 02:59:57;;;;;;;13.15;5.32;;;17.50;99.90;;;;;;2032668;29;20039;-71
2023/06/27 03:01:03;;;;;;;7.60;5.47;;;17.50;99.90;;;;;;2037274;28;20039;-71
2023/06/27 03:02:04;;;;;;;9.15;5.20;;;17.50;99.90;;;;;;2032433;29;20503;-72
2023/06/27 03:03:05;;;;;;;10.82;5.20;;;17.50;99.90;;;;;;2038619;29;20093;-72
2023/06/27 03:04:08;;;;;;;8.55;5.05;;;17.50;99.90;;;;;;2038721;29;20043;-74
2023/06/27 03:05:09;;;;;;;11.20;5.32;;;17.40;99.90;;;;;;2030239;29;20491;-72
2023/06/27 03:06:11;;;;;;;8.95;5.22;;;17.40;99.90;;;;;;2030497;29;20036;-71
2023/06/27 03:07:12;;;;;;;6.35;5.05;;;17.40;99.90;;;;;;2038511;29;20110;-71
2023/06/27 03:08:12;;;;;;;11.88;5.30;;;17.40;99.90;;;;;;2035829;29;20035;-71
2023/06/27 03:09:13;;;;;;;11.52;5.40;;;17.40;99.90;;;;;;2023833;29;20056;-71
2023/06/27 03:10:14;;;;;;;10.68;5.28;;;17.40;99.90;;;;;;2021388;29;20156;-71
2023/06/27 03:11:15;;;;;;;9.95;5.70;;;17.30;99.90;;;;;;2027031;29;20516;-71
2023/06/27 03:12:16;;;;;;;9.70;5.43;;;17.30;99.90;;;;;;2011518;29;20043;-72
2023/06/27 03:13:16;;;;;;;10.55;5.80;;;17.40;99.90;;;;;;2026355;29;20036;-72
2023/06/27 03:14:18;;;;;;;8.68;5.57;;;17.40;99.90;;;;;;2033596;29;20103;-72
2023/06/27 03:15:21;;;;;;;11.55;5.80;;;17.40;99.90;;;;;;2032323;29;20035;-72
2023/06/27 03:16:22;;;;;;;10.18;5.63;;;17.40;99.90;;;;;;2041528;29;20495;-71
2023/06/27 03:17:22;;;;;;;13.20;5.90;;;17.40;99.90;;;;;;2039418;29;20106;-72
2023/06/27 03:18:23;;;;;;;9.85;5.68;;;17.50;99.90;;;;;;2037229;28;20032;-71
2023/06/27 03:19:24;;;;;;;10.57;5.25;;;17.50;99.90;;;;;;2036537;28;20020;-72
2023/06/27 03:20:25;;;;;;;10.13;5.40;;;17.50;99.90;;;;;;2044072;29;20034;-72
2023/06/27 03:21:26;;;;;;;11.73;5.60;;;17.40;99.90;;;;;;2034097;29;20028;-71
2023/06/27 03:22:27;;;;;;;12.35;5.40;;;17.40;99.90;;;;;;2038381;29;20038;-71
2023/06/27 03:23:28;;;;;;;9.23;5.50;;;17.50;99.90;;;;;;2038343;29;20055;-71
2023/06/27 03:24:28;;;;;;;9.93;5.72;;;17.50;99.90;;;;;;2038745;28;20082;-73
2023/06/27 03:25:29;;;;;;;10.68;5.63;;;17.50;99.90;;;;;;2039592;29;20146;-72
2023/06/27 03:26:30;;;;;;;9.45;5.35;;;17.40;99.90;;;;;;2041629;29;20027;-72
2023/06/27 03:27:33;;;;;;;11.55;5.03;;;17.50;99.90;;;;;;2037547;29;20031;-72
2023/06/27 03:28:34;;;;;;;9.43;5.32;;;17.50;99.90;;;;;;2047529;28;20457;-73
2023/06/27 03:29:34;;;;;;;10.95;5.47;;;17.50;99.90;;;;;;2035422;29;20028;-73
2023/06/27 03:30:35;;;;;;;9.68;5.35;;;17.40;99.90;;;;;;2027871;29;20444;-74
2023/06/27 03:31:36;;;;;;;11.10;5.10;;;17.40;99.90;;;;;;2033520;29;20039;-73
2023/06/27 03:32:36;;;;;;;12.88;5.72;;;17.40;99.90;;;;;;2027478;29;20032;-73
2023/06/27 03:33:37;;;;;;;10.13;5.32;;;17.50;99.90;;;;;;2035237;29;20788;-72
2023/06/27 03:34:40;;;;;;;13.30;5.00;;;17.50;99.90;;;;;;2039987;29;20042;-72
2023/06/27 03:35:40;;;;;;;11.05;4.70;;;17.50;99.90;;;;;;2037887;29;20028;-74
2023/06/27 03:36:41;;;;;;;11.25;5.18;;;17.40;99.90;;;;;;2035504;29;20474;-73
2023/06/27 03:37:41;;;;;;;9.60;4.88;;;17.40;99.90;;;;;;2035378;29;20802;-72
2023/06/27 03:38:44;;;;;;;9.65;5.20;;;17.40;99.90;;;;;;2037331;29;20032;-73
2023/06/27 03:39:45;;;;;;;8.60;4.80;;;17.40;99.90;;;;;;2045404;28;20031;-73
2023/06/27 03:40:48;;;;;;;11.60;4.93;;;17.40;99.90;;;;;;2047368;28;20028;-73
2023/06/27 03:41:48;;;;;;;9.68;4.50;;;17.40;99.90;;;;;;2039752;29;20063;-72
2023/06/27 03:42:49;;;;;;;9.45;4.50;;;17.40;99.90;;;;;;2032634;29;20399;-74
2023/06/27 03:43:50;;;;;;;7.82;4.30;;;17.40;99.90;;;;;;2032991;29;20749;-71
2023/06/27 03:44:52;;;;;;;11.85;4.72;;;17.50;99.90;;;;;;2042486;29;20620;-72
2023/06/27 03:45:56;;;;;;;8.15;4.43;;;17.50;99.90;;;;;;2039277;28;20024;-72
2023/06/27 03:46:59;;;;;;;11.25;4.07;;;17.50;99.90;;;;;;2042625;28;20023;-73
2023/06/27 03:48:00;;;;;;;10.00;4.40;;;17.40;99.90;;;;;;2044070;28;20023;-73
2023/06/27 03:49:01;;;;;;;13.95;4.50;;;17.40;99.90;;;;;;2046419;28;20024;-74
2023/06/27 03:50:01;;;;;;;10.75;4.40;;;17.40;99.90;;;;;;2048809;28;20035;-73
2023/06/27 03:51:02;;;;;;;8.85;4.03;;;17.30;99.90;;;;;;2039657;29;20024;-73
2023/06/27 03:52:02;;;;;;;8.48;4.70;;;17.30;99.90;;;;;;2039481;29;20090;-72
2023/06/27 03:53:04;;;;;;;10.98;4.80;;;17.30;99.90;;;;;;2035242;29;20550;-73
2023/06/27 03:54:06;;;;;;;8.27;4.43;;;17.30;99.90;;;;;;2029395;29;20023;-72
2023/06/27 03:55:07;;;;;;;10.02;4.38;;;17.30;99.90;;;;;;2038266;29;20066;-73
2023/06/27 03:56:08;;;;;;;10.75;4.20;;;17.30;99.90;;;;;;2037934;29;20154;-73
2023/06/27 03:57:08;;;;;;;10.90;4.13;;;17.20;99.90;;;;;;2024390;29;20753;-72
2023/06/27 03:58:09;;;;;;;11.18;4.30;;;17.30;99.90;;;;;;2030908;29;20555;-76
2023/06/27 03:59:09;;;;;;;7.55;4.00;;;17.30;99.90;;;;;;2033008;29;20031;-73
2023/06/27 04:00:11;;;;;;;8.27;4.20;;;17.40;99.90;;;;;;2027477;29;20045;-72
2023/06/27 04:01:17;;;;;;;11.32;4.35;;;17.40;99.90;;;;;;2036357;29;20808;-73
2023/06/27 04:02:18;;;;;;;8.98;4.28;;;17.50;99.90;;;;;;2041738;29;20066;-72
2023/06/27 04:03:20;;;;;;;11.50;4.60;;;17.40;99.90;;;;;;2047492;28;20056;-73
2023/06/27 04:04:20;;;;;;;9.85;4.35;;;17.40;99.90;;;;;;2048432;28;20023;-72
2023/06/27 04:05:22;;;;;;;8.07;3.80;;;17.40;99.90;;;;;;2043987;28;20578;-73
2023/06/27 04:06:24;;;;;;;8.82;4.10;;;17.40;99.90;;;;;;2037091;29;20519;-73
2023/06/27 04:07:24;;;;;;;8.10;4.10;;;17.40;99.90;;;;;;2030530;29;20032;-73
2023/06/27 04:08:25;;;;;;;10.55;4.50;;;17.50;99.90;;;;;;2025462;29;20027;-73
2023/06/27 04:09:25;;;;;;;11.40;4.20;;;17.40;99.90;;;;;;2027437;29;20147;-73
2023/06/27 04:10:26;;;;;;;7.88;3.95;;;17.50;99.90;;;;;;2033128;29;20035;-73
2023/06/27 04:11:26;;;;;;;10.00;4.20;;;17.60;99.90;;;;;;2028507;29;20528;-72
2023/06/27 04:12:29;;;;;;;8.52;4.30;;;17.60;99.90;;;;;;2028690;29;20987;-73
2023/06/27 04:13:30;;;;;;;9.60;4.30;;;17.70;99.90;;;;;;2044214;28;20024;-73
2023/06/27 04:14:31;;;;;;;6.40;3.65;;;17.70;99.90;;;;;;2044491;28;20030;-72
2023/06/27 04:15:31;;;;;;;7.03;3.75;;;17.80;99.90;;;;;;2040568;29;20027;-72
2023/06/27 04:16:32;;;;;;;9.48;4.03;;;17.80;99.90;;;;;;2038366;28;20045;-72
2023/06/27 04:17:32;;;;;;;6.57;3.90;;;17.90;99.90;;;;;;2039197;29;20031;-72
2023/06/27 04:18:33;;;;;;;9.30;4.28;;;17.90;99.90;;;;;;2048292;28;20026;-71
2023/06/27 04:19:33;;;;;;;11.77;4.10;;;18.00;99.90;;;;;;2047642;28;20039;-71
2023/06/27 04:20:37;;;;;;;9.50;4.13;;;18.00;99.90;;;;;;2035771;29;20036;-72
2023/06/27 04:21:39;;;;;;;8.32;4.20;;;17.90;99.90;;;;;;2031597;29;20143;-72
2023/06/27 04:22:40;;;;;;;8.65;4.10;;;17.90;99.90;;;;;;2039707;29;20490;-72
2023/06/27 04:23:40;;;;;;;9.68;4.63;;;17.90;99.90;;;;;;2031899;29;20036;-72
2023/06/27 04:24:41;;;;;;;9.95;3.95;;;18.00;99.90;;;;;;2030241;29;20071;-72
2023/06/27 04:25:44;;;;;;;8.93;4.22;;;18.00;99.90;;;;;;2038648;28;20035;-72
2023/06/27 04:26:44;;;;;;;10.50;4.10;;;17.90;99.90;;;;;;2038362;29;20035;-73
2023/06/27 04:27:45;;;;;;;10.73;4.32;;;17.90;99.90;;;;;;2037864;29;20110;-71
2023/06/27 04:28:48;;;;;;;7.95;3.85;;;17.80;99.90;;;;;;2035627;29;20093;-73
2023/06/27 04:29:49;;;;;;;11.15;4.38;;;17.80;99.90;;;;;;2037367;29;20063;-71
2023/06/27 04:30:49;;;;;;;8.75;4.05;;;17.80;99.90;;;;;;2035831;29;20039;-72
2023/06/27 04:31:50;;;;;;;7.93;3.92;;;17.80;99.90;;;;;;2040066;29;20044;-73
2023/06/27 04:32:51;;;;;;;10.00;4.07;;;17.80;99.90;;;;;;2039762;29;20030;-72
2023/06/27 04:33:55;;;;;;;11.57;4.30;;;17.90;99.90;;;;;;2036783;29;20487;-75
2023/06/27 04:34:57;;;;;;;7.05;4.00;;;17.90;99.90;;;;;;2040275;29;20031;-76
2023/06/27 04:36:02;;;;;;;10.70;4.15;;;17.90;99.90;;;;;;2038469;28;20380;-75
2023/06/27 04:37:05;;;;;;;9.52;4.40;;;17.90;99.90;;;;;;2038704;28;20050;-75
2023/06/27 04:38:07;;;;;;;10.75;4.22;;;17.90;99.90;;;;;;2046332;28;20129;-73
2023/06/27 04:39:09;;;;;;;13.55;4.47;;;17.80;99.90;;;;;;2045764;28;20047;-76
2023/06/27 04:40:10;;;;;;;8.85;4.25;;;17.80;99.90;;;;;;2041351;28;20026;-75
2023/06/27 04:41:11;;;;;;;8.15;4.22;;;17.80;99.90;;;;;;2039843;29;20027;-74
2023/06/27 04:42:12;;;;;;;9.25;4.15;;;17.80;99.90;;;;;;2042996;28;20478;-74
2023/06/27 04:43:14;;;;;;;11.65;4.32;;;17.80;99.90;;;;;;2039350;29;20033;-75
2023/06/27 04:44:15;;;;;;;8.82;4.50;;;17.80;99.90;;;;;;2041709;29;20118;-73
2023/06/27 04:45:15;;;;;;;8.73;4.28;;;17.80;99.90;;;;;;2035918;29;20031;-73
2023/06/27 04:46:16;;;;;;;10.60;4.38;;;17.80;99.90;;;;;;2038285;29;20039;-74
2023/06/27 04:47:17;;;;;;;10.55;4.30;;;17.80;99.90;;;;;;2038222;29;20039;-74
2023/06/27 04:48:17;;;;;;;8.45;4.35;;;17.90;99.90;;;;;;2037597;29;20098;-74
2023/06/27 04:49:18;;;;;;;7.40;4.05;;;17.90;99.90;;;;;;2042796;28;20121;-73
2023/06/27 04:50:19;;;;;;;9.35;4.15;;;17.90;99.90;;;;;;2049138;28;20031;-73
2023/06/27 04:51:19;;;;;;;8.23;4.30;;;18.00;99.90;;;;;;2035724;29;20031;-73
2023/06/27 04:52:20;;;;;;;11.68;4.78;;;18.00;99.90;;;;;;2040068;29;20128;-73
2023/06/27 04:53:21;;;;;;;12.13;4.70;;;18.10;99.90;;;;;;2048698;28;20042;-72
2023/06/27 04:54:21;;;;;;;11.20;4.97;;;18.10;99.90;;;;;;2047864;28;20034;-73
2023/06/27 04:55:24;;;;;;;9.52;4.60;;;18.10;99.90;;;;;;2039042;28;20042;-73
2023/06/27 04:56:26;;;;;;;7.82;4.35;;;18.10;99.90;;;;;;2042845;28;20031;-76
2023/06/27 04:57:29;;;;;;;8.50;4.38;;;18.10;99.90;;;;;;2045828;28;20395;-73
2023/06/27 04:58:30;;;;;;;11.68;4.28;;;18.10;99.90;;;;;;2046033;28;20023;-73
2023/06/27 04:59:31;;;;;;;10.88;4.60;;;18.20;99.90;;;;;;2048602;28;20867;-74
2023/06/27 05:00:31;;;;;;;8.13;3.95;;;18.20;99.90;;;;;;2042911;28;20170;-73
2023/06/27 05:01:32;;;;;;;9.70;4.43;;;18.40;99.90;;;;;;2037388;29;20044;-73
2023/06/27 05:02:33;;;;;;;11.13;4.00;;;18.50;99.90;;;;;;2040196;29;20166;-73
2023/06/27 05:03:33;;;;;;;9.85;4.20;;;18.60;99.90;;;;;;2040505;29;20038;-73
2023/06/27 05:04:34;;;;;;;12.23;4.50;;;18.70;99.90;;;;;;2039143;28;20058;-74
2023/06/27 05:05:34;;;;;;;10.35;4.15;;;18.80;99.90;;;;;;2045850;28;20031;-73
2023/06/27 05:06:35;;;;;;;12.18;4.50;;;18.70;99.90;;;;;;2045884;28;20038;-73
2023/06/27 05:07:36;;;;;;;10.23;4.50;;;18.80;99.90;;;;;;2045412;28;20030;-74
2023/06/27 05:08:37;;;;;;;10.43;4.20;;;18.80;99.90;;;;;;2042231;28;20588;-74
2023/06/27 05:09:37;;;;;;;11.43;4.13;;;18.70;99.90;;;;;;2041647;29;20036;-74
2023/06/27 05:10:38;;;;;;;8.73;4.30;;;18.70;99.90;;;;;;2038957;28;20050;-73
2023/06/27 05:11:38;;;;;;;11.32;4.10;;;18.60;99.90;;;;;;2038897;28;20039;-73
2023/06/27 05:12:39;;;;;;;7.18;4.05;;;18.60;99.90;;;;;;2052029;28;20041;-73
2023/06/27 05:13:40;;;;;;;10.07;4.03;;;18.70;99.90;;;;;;2045929;28;20027;-74
2023/06/27 05:14:40;;;;;;;9.57;4.28;;;18.50;99.90;;;;;;2039045;28;20106;-74
2023/06/27 05:15:41;;;;;;;11.13;4.03;;;18.50;99.90;;;;;;2038675;28;20035;-74
2023/06/27 05:16:41;;;;;;;7.57;4.18;;;18.40;99.90;;;;;;2038074;28;20040;-73
2023/06/27 05:17:51;;;;;;;12.02;6.57;;;18.40;99.90;;;;;;2035720;29;20613;-73
2023/06/27 05:18:51;;;;;;;10.80;4.55;;;18.40;99.90;;;;;;2031824;29;20020;-73
2023/06/27 05:19:52;;;;;;;6.90;4.00;;;18.40;99.90;;;;;;2034156;29;20134;-74